Time;durP1;ratioP1;P1;durP2;ratioP2;P2;SDS_P1;SDS_P2;PMS_P1;PMS_P2;Temp;Humidity;BMP_temperature;BMP_pressure;BME280_temperature;BME280_humidity;BME280_pressure;Samples;Min_cycle;Max_cycle;Signal;HPM_P1;HPM_P2
2022/05/03 00:01:02;;;;;;;8.60;5.45;;;;;;;;;;5064308;27;99383;-73
2022/05/03 00:03:34;;;;;;;10.80;6.25;;;;;;;;;;5071170;27;97314;-75
2022/05/03 00:06:05;;;;;;;9.48;6.05;;;;;;;;;;5073403;27;95286;-76
2022/05/03 00:08:38;;;;;;;8.77;6.00;;;;;;;;;;5071524;27;97160;-74
2022/05/03 00:11:23;;;;;;;10.60;5.97;;;;;;;;;;5072060;27;97314;-75
2022/05/03 00:14:05;;;;;;;9.55;6.18;;;;;;;;;;5075342;27;95192;-73
2022/05/03 00:16:33;;;;;;;8.77;6.07;;;;;;;;;;5071721;27;97704;-76
2022/05/03 00:19:01;;;;;;;10.48;6.50;;;;;;;;;;5088592;27;95029;-75
2022/05/03 00:21:28;;;;;;;8.98;6.30;;;;;;;;;;5087911;27;96880;-74
2022/05/03 00:23:54;;;;;;;9.93;6.45;;;;;;;;;;5071045;27;97277;-74
2022/05/03 00:26:21;;;;;;;13.27;6.53;;;;;;;;;;5072271;27;95448;-77
2022/05/03 00:28:47;;;;;;;10.02;6.25;;;;;;;;;;5084322;27;96768;-77
2022/05/03 00:31:14;;;;;;;10.77;6.50;;;;;;;;;;5082102;27;97290;-75
2022/05/03 00:33:41;;;;;;;9.57;6.40;;;;;;;;;;5072897;27;95665;-75
2022/05/03 00:36:07;;;;;;;9.98;5.70;;;;;;;;;;5074484;27;99874;-73
2022/05/03 00:38:34;;;;;;;9.88;6.00;;;;;;;;;;5080398;27;96610;-75
2022/05/03 00:41:02;;;;;;;10.52;5.65;;;;;;;;;;5074875;27;96785;-76
2022/05/03 00:43:37;;;;;;;7.63;5.10;;;;;;;;;;5075167;27;97337;-75
2022/05/03 00:46:30;;;;;;;17.85;5.68;;;;;;;;;;5075686;27;95247;-76
2022/05/03 00:48:56;;;;;;;;;;;;;;;;;;5072058;27;96875;-74
2022/05/03 00:51:32;;;;;;;10.73;5.15;;;;;;;;;;5073519;27;126890;-74
2022/05/03 00:54:18;;;;;;;9.88;5.78;;;;;;;;;;5056236;27;95110;-74
2022/05/03 00:56:53;;;;;;;9.10;5.25;;;;;;;;;;5055481;27;96561;-76
2022/05/03 00:59:31;;;;;;;7.72;5.30;;;;;;;;;;5082354;27;97403;-77
2022/05/03 01:02:00;;;;;;;8.60;5.35;;;;;;;;;;5096330;27;96616;-73
2022/05/03 01:04:44;;;;;;;9.43;5.90;;;;;;;;;;5095732;27;97357;-74
2022/05/03 01:07:28;;;;;;;14.73;5.53;;;;;;;;;;5083297;27;96611;-74
2022/05/03 01:10:13;;;;;;;9.88;5.85;;;;;;;;;;5074577;27;98535;-73
2022/05/03 01:12:48;;;;;;;10.55;5.55;;;;;;;;;;5074781;27;96065;-72
2022/05/03 01:15:17;;;;;;;14.30;6.13;;;;;;;;;;5075035;27;95374;-73
2022/05/03 01:17:45;;;;;;;9.05;5.65;;;;;;;;;;5074760;27;96869;-74
2022/05/03 01:20:15;;;;;;;8.98;5.65;;;;;;;;;;5093117;27;97283;-72
2022/05/03 01:23:01;;;;;;;8.02;5.40;;;;;;;;;;5079316;27;95382;-73
2022/05/03 01:25:51;;;;;;;13.65;6.15;;;;;;;;;;5074502;27;97378;-74
2022/05/03 01:28:32;;;;;;;10.93;5.53;;;;;;;;;;5073881;27;95234;-74
2022/05/03 01:31:02;;;;;;;8.80;5.85;;;;;;;;;;5074716;27;96824;-75
2022/05/03 01:33:33;;;;;;;10.00;6.20;;;;;;;;;;5075252;27;97162;-75
2022/05/03 01:36:00;;;;;;;8.82;6.00;;;;;;;;;;5073560;27;96362;-76
2022/05/03 01:38:30;;;;;;;10.65;6.28;;;;;;;;;;5063755;27;95821;-74
2022/05/03 01:40:56;;;;;;;11.88;5.95;;;;;;;;;;5074852;27;97343;-75
2022/05/03 01:43:22;;;;;;;9.95;6.45;;;;;;;;;;5074204;27;95231;-74
2022/05/03 01:45:55;;;;;;;9.25;6.32;;;;;;;;;;5081457;27;97121;-76
2022/05/03 01:51:25;;;;;;;11.32;6.38;;;;;;;;;;5072970;27;97440;-75
2022/05/03 01:53:58;;;;;;;10.80;6.85;;;;;;;;;;5074371;27;97390;-73
2022/05/03 01:56:36;;;;;;;9.73;6.70;;;;;;;;;;5071324;27;95278;-71
2022/05/03 01:59:21;;;;;;;12.52;6.00;;;;;;;;;;5094581;27;95844;-72
2022/05/03 02:01:54;;;;;;;10.73;6.63;;;;;;;;;;5095148;27;96123;-72
2022/05/03 02:04:39;;;;;;;9.30;6.30;;;;;;;;;;5091692;27;95258;-73
2022/05/03 02:07:26;;;;;;;12.63;6.70;;;;;;;;;;5075015;27;96848;-72
2022/05/03 02:09:52;;;;;;;9.80;6.13;;;;;;;;;;5078056;27;97335;-73
2022/05/03 02:12:20;;;;;;;11.90;6.13;;;;;;;;;;5074601;27;96695;-72
2022/05/03 02:14:51;;;;;;;9.73;6.35;;;;;;;;;;5074343;27;97292;-72
2022/05/03 02:17:36;;;;;;;10.10;5.90;;;;;;;;;;5075789;27;95101;-73
2022/05/03 02:20:12;;;;;;;9.45;6.10;;;;;;;;;;5073442;27;96918;-72
2022/05/03 02:23:07;;;;;;;9.90;6.57;;;;;;;;;;5074066;27;97080;-75
2022/05/03 02:25:42;;;;;;;11.70;6.30;;;;;;;;;;4983630;27;95614;-74
2022/05/03 02:28:22;;;;;;;11.77;6.47;;;;;;;;;;5073826;27;95772;-75
2022/05/03 02:30:50;;;;;;;10.50;6.45;;;;;;;;;;5077578;27;97431;-74
2022/05/03 02:33:22;;;;;;;10.98;6.72;;;;;;;;;;5073203;27;96689;-74
2022/05/03 02:35:49;;;;;;;10.38;6.55;;;;;;;;;;5035191;27;97380;-72
2022/05/03 02:38:20;;;;;;;9.45;6.43;;;;;;;;;;5074604;27;94973;-74
2022/05/03 02:40:51;;;;;;;11.65;6.53;;;;;;;;;;5074497;27;97295;-74
2022/05/03 02:43:19;;;;;;;10.93;6.30;;;;;;;;;;5073562;27;97599;-75
2022/05/03 02:45:50;;;;;;;10.90;7.03;;;;;;;;;;5074041;27;95083;-75
2022/05/03 02:48:21;;;;;;;12.63;7.38;;;;;;;;;;5072823;27;96779;-75
2022/05/03 02:50:53;;;;;;;13.13;8.23;;;;;;;;;;5073705;27;97050;-75
2022/05/03 02:53:25;;;;;;;9.83;6.53;;;;;;;;;;5077286;27;95918;-74
2022/05/03 02:55:54;;;;;;;13.13;7.22;;;;;;;;;;5073718;27;97383;-74
2022/05/03 02:58:39;;;;;;;15.25;7.80;;;;;;;;;;5088837;27;95755;-74
2022/05/03 03:03:56;;;;;;;11.82;7.57;;;;;;;;;;5076909;27;97127;-77
2022/05/03 03:06:22;;;;;;;;;;;;;;;;;;5074304;27;95220;-78
2022/05/03 03:08:51;;;;;;;10.23;6.68;;;;;;;;;;5073398;27;126375;-77
2022/05/03 03:11:30;;;;;;;8.43;5.65;;;;;;;;;;5072100;27;96982;-76
2022/05/03 03:13:57;;;;;;;10.10;6.35;;;;;;;;;;5074155;27;95290;-77
2022/05/03 03:16:30;;;;;;;10.18;6.60;;;;;;;;;;5076271;27;97278;-77
2022/05/03 03:18:57;;;;;;;10.60;7.00;;;;;;;;;;5072050;27;95209;-76
2022/05/03 03:21:30;;;;;;;10.48;6.30;;;;;;;;;;5073558;27;97007;-78
2022/05/03 03:23:58;;;;;;;9.43;6.05;;;;;;;;;;5073359;27;97388;-75
2022/05/03 03:26:26;;;;;;;11.20;6.00;;;;;;;;;;5055486;27;95317;-76
2022/05/03 03:28:54;;;;;;;11.13;6.28;;;;;;;;;;5088795;27;96816;-76
2022/05/03 03:31:21;;;;;;;10.88;6.95;;;;;;;;;;5090160;27;97292;-73
2022/05/03 03:33:48;;;;;;;9.93;6.43;;;;;;;;;;5073528;27;95344;-73
2022/05/03 03:36:14;;;;;;;8.80;5.97;;;;;;;;;;5073316;27;96847;-76
2022/05/03 03:38:46;;;;;;;9.20;6.18;;;;;;;;;;5076305;27;97184;-73
2022/05/03 03:41:12;;;;;;;10.27;6.57;;;;;;;;;;5072632;27;98590;-76
2022/05/03 03:43:45;;;;;;;10.27;6.30;;;;;;;;;;5073496;27;97369;-76
2022/05/03 03:46:11;;;;;;;11.18;7.00;;;;;;;;;;5072983;27;95113;-76
2022/05/03 03:48:38;;;;;;;11.35;6.93;;;;;;;;;;5083087;27;96779;-72
2022/05/03 03:51:05;;;;;;;14.38;7.78;;;;;;;;;;5092372;27;96766;-76
2022/05/03 03:53:32;;;;;;;10.57;6.93;;;;;;;;;;5093153;27;95351;-76
2022/05/03 03:56:00;;;;;;;12.50;7.05;;;;;;;;;;5085981;27;96754;-75
2022/05/03 03:58:26;;;;;;;9.52;6.22;;;;;;;;;;5080113;27;97288;-77
2022/05/03 04:00:52;;;;;;;11.23;7.05;;;;;;;;;;5096291;27;95331;-75
2022/05/03 04:03:19;;;;;;;10.85;7.00;;;;;;;;;;5093456;27;97331;-75
2022/05/03 04:05:46;;;;;;;10.73;6.95;;;;;;;;;;5093145;27;95415;-76
2022/05/03 04:08:18;;;;;;;11.60;7.22;;;;;;;;;;5067538;27;96785;-74
2022/05/03 04:10:45;;;;;;;11.20;7.07;;;;;;;;;;5072874;27;96088;-76
2022/05/03 04:13:14;;;;;;;11.88;7.10;;;;;;;;;;5076084;27;95204;-74
2022/05/03 04:15:40;;;;;;;11.27;6.82;;;;;;;;;;5075984;27;95793;-74
2022/05/03 04:18:07;;;;;;;11.07;7.00;;;;;;;;;;5077630;27;97792;-73
2022/05/03 04:20:34;;;;;;;12.00;6.97;;;;;;;;;;5076028;27;95284;-74
2022/05/03 04:23:00;;;;;;;14.80;7.25;;;;;;;;;;5078176;27;96686;-74
2022/05/03 04:25:27;;;;;;;9.77;6.70;;;;;;;;;;5076516;27;95262;-77
2022/05/03 04:27:53;;;;;;;11.43;7.10;;;;;;;;;;5076092;27;96907;-74
2022/05/03 04:30:20;;;;;;;12.55;7.07;;;;;;;;;;5057963;27;97379;-76
2022/05/03 04:32:46;;;;;;;10.32;6.93;;;;;;;;;;5076349;27;95413;-75
2022/05/03 04:35:12;;;;;;;10.50;6.60;;;;;;;;;;5075716;27;97177;-76
2022/05/03 04:37:38;;;;;;;9.75;6.70;;;;;;;;;;5055657;27;96252;-75
2022/05/03 04:40:05;;;;;;;12.07;7.38;;;;;;;;;;5076678;27;96285;-73
2022/05/03 04:42:31;;;;;;;13.13;6.80;;;;;;;;;;5077926;27;95834;-75
2022/05/03 04:44:58;;;;;;;10.43;7.00;;;;;;;;;;5076438;27;95443;-73
2022/05/03 19:06:09;;;;;;;11.95;3.60;;;;;;;;;;5074255;27;95395;-74
2022/05/03 19:08:35;;;;;;;10.63;3.30;;;;;;;;;;5067405;27;97320;-74
2022/05/03 19:11:02;;;;;;;10.05;3.30;;;;;;;;;;5068604;27;97178;-74
2022/05/03 19:13:29;;;;;;;11.52;3.10;;;;;;;;;;5067064;27;97509;-73
2022/05/03 19:15:55;;;;;;;18.23;3.45;;;;;;;;;;5067669;27;97103;-74
2022/05/03 19:18:22;;;;;;;12.18;3.22;;;;;;;;;;5066847;27;95359;-73
2022/05/03 19:20:49;;;;;;;10.85;3.03;;;;;;;;;;5068022;27;96278;-73
2022/05/03 19:23:16;;;;;;;11.93;3.17;;;;;;;;;;5067157;27;97440;-73
2022/05/03 19:31:13;;;;;;;9.93;3.20;;;;;;;;;;5068513;27;95168;-72
2022/05/03 19:33:40;;;;;;;12.93;3.58;;;;;;;;;;5067606;27;97018;-72
2022/05/03 19:36:07;;;;;;;8.60;3.53;;;;;;;;;;5067650;27;97696;-72
2022/05/03 19:38:33;;;;;;;14.95;3.50;;;;;;;;;;5068495;27;95318;-74
2022/05/03 19:41:00;;;;;;;12.05;3.25;;;;;;;;;;5066008;27;96717;-74
2022/05/03 19:43:26;;;;;;;11.82;3.63;;;;;;;;;;5066575;27;97201;-72
2022/05/03 19:45:52;;;;;;;10.48;3.10;;;;;;;;;;5067805;27;95439;-73
2022/05/03 19:48:20;;;;;;;15.65;3.92;;;;;;;;;;5063179;27;96743;-73
2022/05/03 19:50:47;;;;;;;10.00;3.22;;;;;;;;;;5067817;27;96129;-73
2022/05/03 19:53:20;;;;;;;10.68;3.40;;;;;;;;;;5068116;27;96945;-73
2022/05/03 19:55:47;;;;;;;16.23;3.85;;;;;;;;;;5067826;27;99325;-73
2022/05/03 19:58:14;;;;;;;13.10;3.83;;;;;;;;;;5060121;27;95350;-74
2022/05/03 20:00:41;;;;;;;15.68;3.63;;;;;;;;;;5069390;27;99999;-73
2022/05/03 20:03:08;;;;;;;15.05;3.67;;;;;;;;;;5068621;27;97748;-73
2022/05/03 20:05:39;;;;;;;12.63;3.80;;;;;;;;;;5084974;27;95360;-74
2022/05/03 20:08:08;;;;;;;15.63;3.90;;;;;;;;;;5089718;27;96638;-74
2022/05/03 20:10:35;;;;;;;11.90;3.95;;;;;;;;;;5090719;27;97389;-73
2022/05/03 20:13:01;;;;;;;8.55;3.35;;;;;;;;;;5089772;27;96801;-72
2022/05/03 20:15:27;;;;;;;9.68;3.20;;;;;;;;;;5069199;27;97368;-74
2022/05/03 20:17:54;;;;;;;12.25;3.60;;;;;;;;;;5074073;27;95363;-72
2022/05/03 20:20:26;;;;;;;11.07;3.78;;;;;;;;;;5075824;27;96935;-71
2022/05/03 20:22:52;;;;;;;11.38;3.47;;;;;;;;;;5075707;27;97334;-74
2022/05/03 20:25:19;;;;;;;10.60;3.60;;;;;;;;;;5075606;27;95100;-74
2022/05/03 20:27:45;;;;;;;13.65;3.92;;;;;;;;;;5076130;27;96721;-74
2022/05/03 20:30:12;;;;;;;11.85;3.58;;;;;;;;;;5075512;27;97376;-76
2022/05/03 20:32:39;;;;;;;13.27;3.53;;;;;;;;;;5077636;27;95338;-74
2022/05/03 20:35:07;;;;;;;13.00;4.55;;;;;;;;;;5075990;27;97534;-77
2022/05/03 20:37:34;;;;;;;12.27;3.85;;;;;;;;;;5065327;27;95510;-74
2022/05/03 20:40:00;;;;;;;12.60;3.80;;;;;;;;;;5055457;27;96128;-76
2022/05/03 20:42:27;;;;;;;9.63;3.63;;;;;;;;;;5073485;27;97216;-77
2022/05/03 20:44:53;;;;;;;15.15;3.45;;;;;;;;;;5075714;27;95232;-73
2022/05/03 20:50:04;;;;;;;7.88;3.63;;;;;;;;;;5075367;27;97669;-74
2022/05/03 20:52:31;;;;;;;10.68;3.60;;;;;;;;;;5074916;27;95671;-75
2022/05/03 20:54:58;;;;;;;13.27;3.80;;;;;;;;;;5078584;27;100058;-73
2022/05/03 20:57:24;;;;;;;12.50;3.78;;;;;;;;;;5075400;27;95403;-74
2022/05/03 20:59:50;;;;;;;13.93;4.22;;;;;;;;;;5061298;27;97160;-75
2022/05/03 21:02:17;;;;;;;15.45;4.03;;;;;;;;;;5053983;27;97504;-75
2022/05/03 21:04:44;;;;;;;11.35;4.00;;;;;;;;;;5066560;27;95211;-74
2022/05/03 21:07:10;;;;;;;9.25;3.60;;;;;;;;;;5073920;27;96701;-74
2022/05/03 21:09:37;;;;;;;13.40;4.00;;;;;;;;;;5074737;27;96308;-74
2022/05/03 21:12:03;;;;;;;9.85;3.55;;;;;;;;;;5075237;27;96189;-74
2022/05/03 21:14:30;;;;;;;12.48;3.83;;;;;;;;;;5074110;27;95841;-74
2022/05/03 21:16:56;;;;;;;12.00;3.50;;;;;;;;;;5077538;27;95505;-75
2022/05/03 21:19:23;;;;;;;11.45;3.70;;;;;;;;;;5075353;27;96162;-77
2022/05/03 21:21:49;;;;;;;8.35;4.00;;;;;;;;;;5056091;27;97187;-74
2022/05/03 21:24:16;;;;;;;12.98;3.83;;;;;;;;;;5074677;27;95343;-74
2022/05/03 21:26:42;;;;;;;10.65;4.40;;;;;;;;;;5074765;27;97345;-74
2022/05/03 21:29:08;;;;;;;12.98;3.90;;;;;;;;;;5072857;27;96436;-73
2022/05/03 21:31:37;;;;;;;13.05;3.88;;;;;;;;;;5054292;27;95443;-75
2022/05/03 21:34:06;;;;;;;14.25;3.90;;;;;;;;;;5054392;27;96754;-74
2022/05/03 21:36:34;;;;;;;13.25;4.00;;;;;;;;;;5067317;27;97047;-74
2022/05/03 21:39:01;;;;;;;16.83;4.13;;;;;;;;;;5074922;27;95754;-73
2022/05/03 21:41:29;;;;;;;11.43;3.50;;;;;;;;;;5072541;27;97289;-74
2022/05/03 21:43:56;;;;;;;12.27;4.53;;;;;;;;;;5075073;27;95207;-74
2022/05/03 21:46:22;;;;;;;13.18;4.10;;;;;;;;;;5074522;27;96605;-73
2022/05/03 21:48:48;;;;;;;11.73;3.53;;;;;;;;;;5074309;27;97665;-73
2022/05/03 21:51:15;;;;;;;15.60;3.90;;;;;;;;;;5075052;27;95319;-73
2022/05/03 21:53:41;;;;;;;11.85;3.70;;;;;;;;;;5074723;27;96927;-74
2022/05/03 21:56:08;;;;;;;11.70;3.95;;;;;;;;;;5073770;27;96843;-74
2022/05/03 21:58:34;;;;;;;10.15;3.78;;;;;;;;;;5077443;27;95322;-77
2022/05/03 22:01:01;;;;;;;11.35;3.78;;;;;;;;;;5073923;27;96675;-75
2022/05/03 22:03:28;;;;;;;12.32;3.95;;;;;;;;;;5074337;27;95247;-73
2022/05/03 22:06:01;;;;;;;13.07;4.13;;;;;;;;;;5073601;27;96828;-73
2022/05/03 22:08:28;;;;;;;14.32;3.63;;;;;;;;;;5073037;27;97459;-74
2022/05/03 22:10:54;;;;;;;12.85;4.05;;;;;;;;;;5074051;27;95654;-73
2022/05/03 22:13:21;;;;;;;9.00;3.20;;;;;;;;;;5073861;27;96602;-75
2022/05/03 22:15:48;;;;;;;9.65;3.42;;;;;;;;;;5073028;27;97009;-74
2022/05/03 22:18:14;;;;;;;9.27;3.58;;;;;;;;;;5054264;27;95376;-73
2022/05/03 22:20:41;;;;;;;9.30;3.35;;;;;;;;;;5056831;27;97111;-74
2022/05/03 22:23:08;;;;;;;13.18;3.80;;;;;;;;;;5053803;27;95247;-73
2022/05/03 22:25:35;;;;;;;12.27;4.03;;;;;;;;;;5067040;27;96822;-73
2022/05/03 22:28:01;;;;;;;8.52;3.75;;;;;;;;;;5055820;27;97351;-73
2022/05/03 22:30:28;;;;;;;11.40;3.92;;;;;;;;;;5073609;27;95412;-73
2022/05/03 22:32:54;;;;;;;10.73;3.63;;;;;;;;;;5073787;27;96945;-73
2022/05/03 22:35:21;;;;;;;11.48;3.95;;;;;;;;;;5055400;27;97692;-73
2022/05/03 22:37:48;;;;;;;10.50;3.25;;;;;;;;;;5073820;27;95419;-73
2022/05/03 22:40:18;;;;;;;13.07;3.70;;;;;;;;;;5055809;27;96828;-74
2022/05/03 22:42:45;;;;;;;11.23;3.60;;;;;;;;;;5076664;27;96879;-74
2022/05/03 22:45:12;;;;;;;11.68;3.63;;;;;;;;;;5072846;27;96760;-74
2022/05/03 22:47:39;;;;;;;14.63;4.07;;;;;;;;;;5073371;27;97446;-73
2022/05/03 22:50:06;;;;;;;11.07;3.90;;;;;;;;;;5073662;27;95402;-73
2022/05/03 22:52:33;;;;;;;10.55;3.50;;;;;;;;;;5054868;27;96586;-73
2022/05/03 22:54:59;;;;;;;12.45;4.10;;;;;;;;;;5073757;27;97377;-74
2022/05/03 22:57:26;;;;;;;11.93;3.88;;;;;;;;;;5073249;27;95286;-74
2022/05/03 22:59:53;;;;;;;12.32;4.18;;;;;;;;;;5073521;27;98111;-74
2022/05/03 23:02:20;;;;;;;10.48;3.90;;;;;;;;;;5073139;27;97249;-72
2022/05/03 23:04:47;;;;;;;11.98;3.97;;;;;;;;;;5076568;27;95543;-74
2022/05/03 23:07:14;;;;;;;11.55;4.07;;;;;;;;;;5072135;27;97433;-73
2022/05/03 23:09:41;;;;;;;14.85;4.43;;;;;;;;;;5073393;27;95416;-73
2022/05/03 23:12:08;;;;;;;13.45;4.38;;;;;;;;;;5072389;27;96751;-74
2022/05/03 23:14:35;;;;;;;16.13;4.35;;;;;;;;;;5055176;27;97228;-73
2022/05/03 23:17:03;;;;;;;10.55;4.20;;;;;;;;;;5072822;27;95370;-75
2022/05/03 23:19:33;;;;;;;12.25;4.10;;;;;;;;;;5053985;27;96743;-75
2022/05/03 23:22:00;;;;;;;10.80;4.15;;;;;;;;;;5072264;27;97354;-74
2022/05/03 23:24:26;;;;;;;11.68;4.50;;;;;;;;;;5075092;27;95132;-74
2022/05/03 23:26:53;;;;;;;14.60;4.32;;;;;;;;;;5072070;27;97273;-74
2022/05/03 23:29:19;;;;;;;10.88;4.22;;;;;;;;;;5072257;27;95530;-74
2022/05/03 23:31:46;;;;;;;15.15;3.83;;;;;;;;;;5072518;27;96860;-74
2022/05/03 23:37:00;;;;;;;10.95;3.75;;;;;;;;;;5072773;27;95194;-74
2022/05/03 23:39:27;;;;;;;11.20;3.90;;;;;;;;;;5072616;27;97273;-73
2022/05/03 23:41:54;;;;;;;11.18;4.10;;;;;;;;;;5071767;27;97479;-74
2022/05/03 23:44:20;;;;;;;11.80;3.92;;;;;;;;;;5071895;27;95362;-74
2022/05/03 23:46:48;;;;;;;15.55;4.10;;;;;;;;;;5074574;27;96268;-74
2022/05/03 23:49:15;;;;;;;16.35;3.88;;;;;;;;;;5054353;27;96050;-73
2022/05/03 23:51:42;;;;;;;16.27;4.28;;;;;;;;;;5074152;27;96778;-73
2022/05/03 23:54:08;;;;;;;10.70;3.97;;;;;;;;;;5075870;27;97342;-73
2022/05/03 23:56:34;;;;;;;15.45;3.88;;;;;;;;;;5075533;27;95203;-74
2022/05/03 23:59:01;;;;;;;14.48;4.30;;;;;;;;;;5076019;27;96763;-73
